sensor_id;sensor_type;location;lat;lon;timestamp;temperature;humidity
24382;DHT22;12502;50.678;7.172;2022-09-09T00:05:16;17.70;99.90
24382;DHT22;12502;50.678;7.172;2022-09-09T00:15:41;17.70;99.90
24382;DHT22;12502;50.678;7.172;2022-09-09T00:20:55;17.70;99.90
24382;DHT22;12502;50.678;7.172;2022-09-09T00:26:02;17.60;99.90
24382;DHT22;12502;50.678;7.172;2022-09-09T00:31:32;17.60;99.90
24382;DHT22;12502;50.678;7.172;2022-09-09T00:36:35;17.60;99.90
24382;DHT22;12502;50.678;7.172;2022-09-09T00:57:52;17.40;99.90
24382;DHT22;12502;50.678;7.172;2022-09-09T01:13:34;17.30;99.90
24382;DHT22;12502;50.678;7.172;2022-09-09T01:18:48;17.10;99.90
24382;DHT22;12502;50.678;7.172;2022-09-09T01:29:34;17.00;99.90
24382;DHT22;12502;50.678;7.172;2022-09-09T01:34:38;17.00;99.90
24382;DHT22;12502;50.678;7.172;2022-09-09T01:39:43;17.00;99.90
24382;DHT22;12502;50.678;7.172;2022-09-09T01:44:46;17.00;99.90
24382;DHT22;12502;50.678;7.172;2022-09-09T01:49:48;17.00;99.90
24382;DHT22;12502;50.678;7.172;2022-09-09T01:54:50;17.00;99.90
24382;DHT22;12502;50.678;7.172;2022-09-09T02:00:04;17.00;99.90
24382;DHT22;12502;50.678;7.172;2022-09-09T02:05:37;17.00;99.90
24382;DHT22;12502;50.678;7.172;2022-09-09T02:11:01;17.00;99.90
24382;DHT22;12502;50.678;7.172;2022-09-09T02:21:14;17.10;99.90
24382;DHT22;12502;50.678;7.172;2022-09-09T02:26:17;17.10;99.90
24382;DHT22;12502;50.678;7.172;2022-09-09T02:31:25;17.10;99.90
24382;DHT22;12502;50.678;7.172;2022-09-09T02:36:30;17.20;99.90
24382;DHT22;12502;50.678;7.172;2022-09-09T02:41:36;17.10;99.90
24382;DHT22;12502;50.678;7.172;2022-09-09T02:52:14;17.30;99.90
24382;DHT22;12502;50.678;7.172;2022-09-09T02:57:30;17.20;99.90
24382;DHT22;12502;50.678;7.172;2022-09-09T03:02:32;17.10;99.90
24382;DHT22;12502;50.678;7.172;2022-09-09T03:07:34;17.20;99.90
24382;DHT22;12502;50.678;7.172;2022-09-09T03:12:36;17.20;99.90
24382;DHT22;12502;50.678;7.172;2022-09-09T03:17:38;17.20;99.90
24382;DHT22;12502;50.678;7.172;2022-09-09T03:22:40;17.20;99.90
24382;DHT22;12502;50.678;7.172;2022-09-09T03:27:42;17.20;99.90
24382;DHT22;12502;50.678;7.172;2022-09-09T03:32:44;17.30;99.90
24382;DHT22;12502;50.678;7.172;2022-09-09T03:37:49;17.20;99.90
24382;DHT22;12502;50.678;7.172;2022-09-09T03:42:51;17.20;99.90
24382;DHT22;12502;50.678;7.172;2022-09-09T03:47:52;17.10;99.90
24382;DHT22;12502;50.678;7.172;2022-09-09T03:52:55;17.00;99.90
24382;DHT22;12502;50.678;7.172;2022-09-09T03:57:57;17.00;99.90
24382;DHT22;12502;50.678;7.172;2022-09-09T04:02:58;17.00;99.90
24382;DHT22;12502;50.678;7.172;2022-09-09T04:08:00;17.00;99.90
24382;DHT22;12502;50.678;7.172;2022-09-09T04:13:03;17.10;99.90
24382;DHT22;12502;50.678;7.172;2022-09-09T04:18:05;17.20;99.90
24382;DHT22;12502;50.678;7.172;2022-09-09T04:23:07;17.10;99.90
24382;DHT22;12502;50.678;7.172;2022-09-09T04:28:09;17.10;99.90
24382;DHT22;12502;50.678;7.172;2022-09-09T04:33:12;17.10;99.90
24382;DHT22;12502;50.678;7.172;2022-09-09T04:38:15;17.10;99.90
24382;DHT22;12502;50.678;7.172;2022-09-09T04:43:16;17.00;99.90
24382;DHT22;12502;50.678;7.172;2022-09-09T04:48:19;17.00;99.90
24382;DHT22;12502;50.678;7.172;2022-09-09T04:53:22;16.90;99.90
24382;DHT22;12502;50.678;7.172;2022-09-09T04:58:24;16.90;99.90
24382;DHT22;12502;50.678;7.172;2022-09-09T05:03:25;16.90;99.90
24382;DHT22;12502;50.678;7.172;2022-09-09T05:08:27;16.90;99.90
24382;DHT22;12502;50.678;7.172;2022-09-09T05:13:29;17.00;99.90
24382;DHT22;12502;50.678;7.172;2022-09-09T05:18:33;16.90;99.90
24382;DHT22;12502;50.678;7.172;2022-09-09T05:23:35;17.00;99.90
24382;DHT22;12502;50.678;7.172;2022-09-09T05:28:37;16.90;99.90
24382;DHT22;12502;50.678;7.172;2022-09-09T05:33:40;16.90;99.90
24382;DHT22;12502;50.678;7.172;2022-09-09T05:38:43;16.90;99.90
24382;DHT22;12502;50.678;7.172;2022-09-09T05:43:45;16.90;99.90
24382;DHT22;12502;50.678;7.172;2022-09-09T05:48:49;16.90;99.90
24382;DHT22;12502;50.678;7.172;2022-09-09T05:53:52;16.90;99.90
24382;DHT22;12502;50.678;7.172;2022-09-09T05:58:56;17.00;99.90
24382;DHT22;12502;50.678;7.172;2022-09-09T06:03:58;17.00;99.90
24382;DHT22;12502;50.678;7.172;2022-09-09T06:09:00;17.00;99.90
24382;DHT22;12502;50.678;7.172;2022-09-09T06:14:03;17.10;99.90
24382;DHT22;12502;50.678;7.172;2022-09-09T06:19:04;17.00;99.90
24382;DHT22;12502;50.678;7.172;2022-09-09T06:24:07;17.10;99.90
24382;DHT22;12502;50.678;7.172;2022-09-09T06:29:09;17.20;99.90
24382;DHT22;12502;50.678;7.172;2022-09-09T06:34:11;17.20;99.90
24382;DHT22;12502;50.678;7.172;2022-09-09T06:39:13;17.30;99.90
24382;DHT22;12502;50.678;7.172;2022-09-09T06:44:16;17.30;99.90
24382;DHT22;12502;50.678;7.172;2022-09-09T06:49:18;17.40;99.90
24382;DHT22;12502;50.678;7.172;2022-09-09T06:54:20;17.50;99.90
24382;DHT22;12502;50.678;7.172;2022-09-09T06:59:23;17.60;99.90
24382;DHT22;12502;50.678;7.172;2022-09-09T07:04:25;17.60;99.90
24382;DHT22;12502;50.678;7.172;2022-09-09T07:09:26;17.70;99.90
24382;DHT22;12502;50.678;7.172;2022-09-09T07:14:28;17.80;99.90
24382;DHT22;12502;50.678;7.172;2022-09-09T07:19:30;17.90;99.90
24382;DHT22;12502;50.678;7.172;2022-09-09T07:24:32;18.00;99.90
24382;DHT22;12502;50.678;7.172;2022-09-09T07:29:33;18.10;99.90
24382;DHT22;12502;50.678;7.172;2022-09-09T07:34:36;18.00;99.90
24382;DHT22;12502;50.678;7.172;2022-09-09T07:39:37;18.10;99.90
24382;DHT22;12502;50.678;7.172;2022-09-09T07:44:40;18.10;99.90
24382;DHT22;12502;50.678;7.172;2022-09-09T07:49:41;18.10;99.90
24382;DHT22;12502;50.678;7.172;2022-09-09T07:54:43;18.10;99.90
24382;DHT22;12502;50.678;7.172;2022-09-09T07:59:50;18.10;99.90
24382;DHT22;12502;50.678;7.172;2022-09-09T08:04:52;18.20;99.90
24382;DHT22;12502;50.678;7.172;2022-09-09T08:09:54;18.20;99.90
24382;DHT22;12502;50.678;7.172;2022-09-09T08:14:56;18.30;99.90
24382;DHT22;12502;50.678;7.172;2022-09-09T08:19:58;18.40;99.90
24382;DHT22;12502;50.678;7.172;2022-09-09T08:25:05;18.40;99.90
24382;DHT22;12502;50.678;7.172;2022-09-09T08:30:08;18.50;99.90
24382;DHT22;12502;50.678;7.172;2022-09-09T08:35:10;18.50;99.90
24382;DHT22;12502;50.678;7.172;2022-09-09T08:40:21;18.70;99.90
24382;DHT22;12502;50.678;7.172;2022-09-09T08:45:26;18.90;99.90
24382;DHT22;12502;50.678;7.172;2022-09-09T08:50:35;18.90;99.90
24382;DHT22;12502;50.678;7.172;2022-09-09T08:55:50;19.00;99.90
24382;DHT22;12502;50.678;7.172;2022-09-09T09:11:24;19.10;99.90
24382;DHT22;12502;50.678;7.172;2022-09-09T09:16:56;19.40;99.90
24382;DHT22;12502;50.678;7.172;2022-09-09T09:22:18;19.40;99.90
24382;DHT22;12502;50.678;7.172;2022-09-09T09:27:33;19.60;99.90
24382;DHT22;12502;50.678;7.172;2022-09-09T09:32:36;19.50;99.90
24382;DHT22;12502;50.678;7.172;2022-09-09T09:37:41;19.40;99.90
24382;DHT22;12502;50.678;7.172;2022-09-09T09:43:05;19.50;99.90
24382;DHT22;12502;50.678;7.172;2022-09-09T09:48:11;19.50;99.90
24382;DHT22;12502;50.678;7.172;2022-09-09T09:58:22;19.40;99.90
24382;DHT22;12502;50.678;7.172;2022-09-09T10:03:27;19.30;99.90
24382;DHT22;12502;50.678;7.172;2022-09-09T10:08:33;19.40;99.90
24382;DHT22;12502;50.678;7.172;2022-09-09T10:40:27;19.70;99.90
24382;DHT22;12502;50.678;7.172;2022-09-09T10:45:44;19.80;99.90
24382;DHT22;12502;50.678;7.172;2022-09-09T10:50:54;20.00;99.90
24382;DHT22;12502;50.678;7.172;2022-09-09T10:56:22;20.10;99.90
24382;DHT22;12502;50.678;7.172;2022-09-09T11:01:33;20.20;99.90
24382;DHT22;12502;50.678;7.172;2022-09-09T11:06:42;20.20;99.90
24382;DHT22;12502;50.678;7.172;2022-09-09T11:11:54;20.20;99.90
24382;DHT22;12502;50.678;7.172;2022-09-09T11:17:15;20.20;99.90
24382;DHT22;12502;50.678;7.172;2022-09-09T11:22:40;20.20;99.90
24382;DHT22;12502;50.678;7.172;2022-09-09T11:44:32;20.60;99.90
24382;DHT22;12502;50.678;7.172;2022-09-09T11:49:41;20.80;99.90
24382;DHT22;12502;50.678;7.172;2022-09-09T11:54:48;20.90;99.90
24382;DHT22;12502;50.678;7.172;2022-09-09T11:59:51;21.00;99.90
24382;DHT22;12502;50.678;7.172;2022-09-09T12:05:07;21.00;99.90
24382;DHT22;12502;50.678;7.172;2022-09-09T12:10:35;21.00;99.90
24382;DHT22;12502;50.678;7.172;2022-09-09T12:15:50;21.10;99.90
24382;DHT22;12502;50.678;7.172;2022-09-09T12:26:03;21.00;99.90
24382;DHT22;12502;50.678;7.172;2022-09-09T12:31:10;21.10;99.90
24382;DHT22;12502;50.678;7.172;2022-09-09T12:36:22;21.00;99.90
24382;DHT22;12502;50.678;7.172;2022-09-09T12:41:27;21.00;99.90
24382;DHT22;12502;50.678;7.172;2022-09-09T12:46:35;21.00;99.90
24382;DHT22;12502;50.678;7.172;2022-09-09T12:51:38;20.90;99.90
24382;DHT22;12502;50.678;7.172;2022-09-09T12:56:39;20.90;99.90
24382;DHT22;12502;50.678;7.172;2022-09-09T13:01:41;20.80;99.90
24382;DHT22;12502;50.678;7.172;2022-09-09T13:06:43;20.80;99.90
24382;DHT22;12502;50.678;7.172;2022-09-09T13:11:54;20.70;99.90
24382;DHT22;12502;50.678;7.172;2022-09-09T13:17:03;20.80;99.90
24382;DHT22;12502;50.678;7.172;2022-09-09T13:32:33;20.70;99.90
24382;DHT22;12502;50.678;7.172;2022-09-09T13:37:36;20.60;99.90
24382;DHT22;12502;50.678;7.172;2022-09-09T13:42:40;20.70;99.90
24382;DHT22;12502;50.678;7.172;2022-09-09T13:47:43;20.90;99.90
24382;DHT22;12502;50.678;7.172;2022-09-09T13:52:47;21.00;99.90
24382;DHT22;12502;50.678;7.172;2022-09-09T13:58:00;21.00;99.90
24382;DHT22;12502;50.678;7.172;2022-09-09T14:03:02;21.00;99.90
24382;DHT22;12502;50.678;7.172;2022-09-09T14:08:05;20.90;99.90
24382;DHT22;12502;50.678;7.172;2022-09-09T14:13:07;20.90;99.90
24382;DHT22;12502;50.678;7.172;2022-09-09T14:18:11;20.90;99.90
24382;DHT22;12502;50.678;7.172;2022-09-09T14:23:14;20.90;99.90
24382;DHT22;12502;50.678;7.172;2022-09-09T14:28:17;20.80;99.90
24382;DHT22;12502;50.678;7.172;2022-09-09T14:33:26;20.90;99.90
24382;DHT22;12502;50.678;7.172;2022-09-09T14:38:32;20.80;99.90
24382;DHT22;12502;50.678;7.172;2022-09-09T14:43:35;20.70;99.90
24382;DHT22;12502;50.678;7.172;2022-09-09T14:48:37;20.60;99.90
24382;DHT22;12502;50.678;7.172;2022-09-09T14:53:40;20.60;99.90
24382;DHT22;12502;50.678;7.172;2022-09-09T14:58:42;20.50;99.90
24382;DHT22;12502;50.678;7.172;2022-09-09T15:03:53;20.60;99.90
24382;DHT22;12502;50.678;7.172;2022-09-09T15:08:56;20.90;99.90
24382;DHT22;12502;50.678;7.172;2022-09-09T15:14:03;20.90;99.90
24382;DHT22;12502;50.678;7.172;2022-09-09T15:19:05;20.90;99.90
24382;DHT22;12502;50.678;7.172;2022-09-09T15:24:07;20.90;99.90
24382;DHT22;12502;50.678;7.172;2022-09-09T15:29:09;20.80;99.90
24382;DHT22;12502;50.678;7.172;2022-09-09T15:34:11;20.60;99.90
24382;DHT22;12502;50.678;7.172;2022-09-09T15:39:16;20.40;99.90
24382;DHT22;12502;50.678;7.172;2022-09-09T15:44:18;20.40;99.90
24382;DHT22;12502;50.678;7.172;2022-09-09T15:49:23;20.40;99.90
24382;DHT22;12502;50.678;7.172;2022-09-09T15:54:26;20.30;99.90
24382;DHT22;12502;50.678;7.172;2022-09-09T15:59:30;20.20;99.90
24382;DHT22;12502;50.678;7.172;2022-09-09T16:04:32;20.10;99.90
24382;DHT22;12502;50.678;7.172;2022-09-09T16:09:35;20.20;99.90
24382;DHT22;12502;50.678;7.172;2022-09-09T16:14:37;20.20;99.90
24382;DHT22;12502;50.678;7.172;2022-09-09T16:19:40;20.10;99.90
24382;DHT22;12502;50.678;7.172;2022-09-09T16:24:42;20.00;99.90
24382;DHT22;12502;50.678;7.172;2022-09-09T16:29:44;20.00;99.90
24382;DHT22;12502;50.678;7.172;2022-09-09T16:34:45;19.90;99.90
24382;DHT22;12502;50.678;7.172;2022-09-09T16:39:47;19.90;99.90
24382;DHT22;12502;50.678;7.172;2022-09-09T16:44:49;19.80;99.90
24382;DHT22;12502;50.678;7.172;2022-09-09T16:49:51;19.70;99.90
24382;DHT22;12502;50.678;7.172;2022-09-09T16:54:53;19.60;99.90
24382;DHT22;12502;50.678;7.172;2022-09-09T16:59:55;19.40;99.90
24382;DHT22;12502;50.678;7.172;2022-09-09T17:05:00;19.20;99.90
24382;DHT22;12502;50.678;7.172;2022-09-09T17:10:02;19.00;99.90
24382;DHT22;12502;50.678;7.172;2022-09-09T17:15:05;18.90;99.90
24382;DHT22;12502;50.678;7.172;2022-09-09T17:20:07;18.70;99.90
24382;DHT22;12502;50.678;7.172;2022-09-09T17:25:10;18.60;99.90
24382;DHT22;12502;50.678;7.172;2022-09-09T17:30:12;18.50;99.90
24382;DHT22;12502;50.678;7.172;2022-09-09T17:35:14;18.50;99.90
24382;DHT22;12502;50.678;7.172;2022-09-09T17:40:16;18.40;99.90
24382;DHT22;12502;50.678;7.172;2022-09-09T17:45:18;18.40;99.90
24382;DHT22;12502;50.678;7.172;2022-09-09T17:50:21;18.30;99.90
24382;DHT22;12502;50.678;7.172;2022-09-09T17:55:22;18.30;99.90
24382;DHT22;12502;50.678;7.172;2022-09-09T18:00:24;18.20;99.90
24382;DHT22;12502;50.678;7.172;2022-09-09T18:05:26;18.10;99.90
24382;DHT22;12502;50.678;7.172;2022-09-09T18:10:28;18.10;99.90
24382;DHT22;12502;50.678;7.172;2022-09-09T18:15:29;18.10;99.90
24382;DHT22;12502;50.678;7.172;2022-09-09T18:21:02;18.00;99.90
24382;DHT22;12502;50.678;7.172;2022-09-09T18:26:13;17.90;99.90
24382;DHT22;12502;50.678;7.172;2022-09-09T18:31:17;17.90;99.90
24382;DHT22;12502;50.678;7.172;2022-09-09T18:36:26;17.80;99.90
24382;DHT22;12502;50.678;7.172;2022-09-09T18:41:34;17.80;99.90
24382;DHT22;12502;50.678;7.172;2022-09-09T18:46:36;17.70;99.90
24382;DHT22;12502;50.678;7.172;2022-09-09T18:51:39;17.70;99.90
24382;DHT22;12502;50.678;7.172;2022-09-09T18:56:43;17.70;99.90
24382;DHT22;12502;50.678;7.172;2022-09-09T19:01:45;17.50;99.90
24382;DHT22;12502;50.678;7.172;2022-09-09T19:06:48;17.50;99.90
24382;DHT22;12502;50.678;7.172;2022-09-09T19:11:50;17.50;99.90
24382;DHT22;12502;50.678;7.172;2022-09-09T19:16:52;17.50;99.90
24382;DHT22;12502;50.678;7.172;2022-09-09T19:21:54;17.50;99.90
24382;DHT22;12502;50.678;7.172;2022-09-09T19:27:00;17.40;99.90
24382;DHT22;12502;50.678;7.172;2022-09-09T19:32:02;17.30;99.90
24382;DHT22;12502;50.678;7.172;2022-09-09T19:37:24;17.40;99.90
24382;DHT22;12502;50.678;7.172;2022-09-09T19:42:26;17.30;99.90
24382;DHT22;12502;50.678;7.172;2022-09-09T19:47:30;17.30;99.90
24382;DHT22;12502;50.678;7.172;2022-09-09T19:52:32;17.30;99.90
24382;DHT22;12502;50.678;7.172;2022-09-09T19:57:34;17.40;99.90
24382;DHT22;12502;50.678;7.172;2022-09-09T20:02:36;17.20;99.90
24382;DHT22;12502;50.678;7.172;2022-09-09T20:07:37;17.10;99.90
24382;DHT22;12502;50.678;7.172;2022-09-09T20:12:39;17.10;99.90
24382;DHT22;12502;50.678;7.172;2022-09-09T20:17:42;17.20;99.90
24382;DHT22;12502;50.678;7.172;2022-09-09T20:22:44;17.10;99.90
24382;DHT22;12502;50.678;7.172;2022-09-09T20:27:46;17.00;99.90
24382;DHT22;12502;50.678;7.172;2022-09-09T20:32:47;17.00;99.90
24382;DHT22;12502;50.678;7.172;2022-09-09T20:37:49;17.00;99.90
24382;DHT22;12502;50.678;7.172;2022-09-09T20:42:51;17.00;99.90
24382;DHT22;12502;50.678;7.172;2022-09-09T20:47:53;17.00;99.90
24382;DHT22;12502;50.678;7.172;2022-09-09T20:52:57;17.00;99.90
24382;DHT22;12502;50.678;7.172;2022-09-09T20:57:59;16.90;99.90
24382;DHT22;12502;50.678;7.172;2022-09-09T21:03:01;17.00;99.90
24382;DHT22;12502;50.678;7.172;2022-09-09T21:08:03;17.00;99.90
24382;DHT22;12502;50.678;7.172;2022-09-09T21:13:05;17.00;99.90
24382;DHT22;12502;50.678;7.172;2022-09-09T21:18:06;16.90;99.90
24382;DHT22;12502;50.678;7.172;2022-09-09T21:23:12;16.90;99.90
24382;DHT22;12502;50.678;7.172;2022-09-09T21:28:15;16.90;99.90
24382;DHT22;12502;50.678;7.172;2022-09-09T21:33:19;16.90;99.90
24382;DHT22;12502;50.678;7.172;2022-09-09T21:38:22;16.90;99.90
24382;DHT22;12502;50.678;7.172;2022-09-09T21:43:25;16.90;99.90
24382;DHT22;12502;50.678;7.172;2022-09-09T21:48:26;16.90;99.90
24382;DHT22;12502;50.678;7.172;2022-09-09T21:53:28;16.80;99.90
24382;DHT22;12502;50.678;7.172;2022-09-09T21:58:30;16.80;99.90
24382;DHT22;12502;50.678;7.172;2022-09-09T22:03:35;16.80;99.90
24382;DHT22;12502;50.678;7.172;2022-09-09T22:08:38;16.80;99.90
24382;DHT22;12502;50.678;7.172;2022-09-09T22:13:41;16.80;99.90
24382;DHT22;12502;50.678;7.172;2022-09-09T22:18:44;16.90;99.90
24382;DHT22;12502;50.678;7.172;2022-09-09T22:24:12;16.80;99.90
24382;DHT22;12502;50.678;7.172;2022-09-09T22:29:13;16.70;99.90
24382;DHT22;12502;50.678;7.172;2022-09-09T22:34:15;16.80;99.90
24382;DHT22;12502;50.678;7.172;2022-09-09T22:39:18;16.70;99.90
24382;DHT22;12502;50.678;7.172;2022-09-09T22:44:19;16.80;99.90
24382;DHT22;12502;50.678;7.172;2022-09-09T22:49:22;16.80;99.90
24382;DHT22;12502;50.678;7.172;2022-09-09T22:54:24;16.70;99.90
24382;DHT22;12502;50.678;7.172;2022-09-09T22:59:25;16.60;99.90
24382;DHT22;12502;50.678;7.172;2022-09-09T23:04:28;16.60;99.90
24382;DHT22;12502;50.678;7.172;2022-09-09T23:09:30;16.60;99.90
24382;DHT22;12502;50.678;7.172;2022-09-09T23:14:32;16.50;99.90
24382;DHT22;12502;50.678;7.172;2022-09-09T23:19:34;16.50;99.90
24382;DHT22;12502;50.678;7.172;2022-09-09T23:24:37;16.50;99.90
24382;DHT22;12502;50.678;7.172;2022-09-09T23:29:39;16.50;99.90
24382;DHT22;12502;50.678;7.172;2022-09-09T23:34:41;16.50;99.90
24382;DHT22;12502;50.678;7.172;2022-09-09T23:39:42;16.40;99.90
24382;DHT22;12502;50.678;7.172;2022-09-09T23:44:44;16.30;99.90
24382;DHT22;12502;50.678;7.172;2022-09-09T23:49:48;16.30;99.90
24382;DHT22;12502;50.678;7.172;2022-09-09T23:54:51;16.20;99.90
24382;DHT22;12502;50.678;7.172;2022-09-09T23:59:52;16.20;99.90
